createdAt,value
2018-12-29T00:02:13.173Z,34.43
2018-12-29T00:04:41.859Z,40.93
2018-12-29T00:07:10.545Z,35.63
2018-12-29T00:09:39.333Z,36.80
2018-12-29T00:12:08.019Z,33.77
2018-12-29T00:14:36.808Z,34.60
2018-12-29T00:17:05.494Z,37.13
2018-12-29T00:19:34.281Z,35.50
2018-12-29T00:22:02.971Z,35.50
2018-12-29T00:24:31.759Z,40.20
2018-12-29T00:27:00.442Z,33.53
2018-12-29T00:29:29.229Z,33.47
2018-12-29T00:31:57.914Z,39.80
2018-12-29T00:34:26.600Z,36.77
2018-12-29T00:36:55.390Z,30.70
2018-12-29T00:39:24.077Z,34.40
2018-12-29T00:41:52.966Z,37.27
2018-12-29T00:44:21.753Z,39.80
2018-12-29T00:46:50.543Z,32.97
2018-12-29T00:49:19.331Z,32.30
2018-12-29T00:51:48.118Z,29.80
2018-12-29T00:54:16.905Z,30.73
2018-12-29T00:56:45.695Z,32.70
2018-12-29T00:59:14.483Z,35.30
2018-12-29T01:01:43.271Z,35.53
2018-12-29T01:04:12.162Z,35.00
2018-12-29T01:06:40.745Z,33.90
2018-12-29T01:09:09.533Z,34.23
2018-12-29T01:11:38.427Z,38.70
2018-12-29T01:14:07.211Z,42.83
2018-12-29T01:16:36.001Z,41.17
2018-12-29T01:19:04.789Z,40.90
2018-12-29T01:21:33.576Z,41.77
2018-12-29T01:24:02.262Z,44.90
2018-12-29T01:26:31.051Z,38.60
2018-12-29T01:28:59.748Z,38.73
2018-12-29T01:31:28.524Z,38.93
2018-12-29T01:33:57.212Z,49.60
2018-12-29T01:36:26.001Z,40.87
2018-12-29T01:38:54.788Z,39.13
2018-12-29T01:41:23.575Z,43.77
2018-12-29T01:43:52.363Z,41.47
2018-12-29T01:46:21.153Z,46.80
2018-12-29T01:48:49.939Z,42.60
2018-12-29T01:51:18.727Z,43.87
2018-12-29T01:53:48.336Z,44.73
2018-12-29T01:56:17.329Z,40.47
2018-12-29T01:58:46.012Z,41.33
2018-12-29T02:01:14.800Z,42.90
2018-12-29T02:03:43.590Z,42.27
2018-12-29T02:06:12.275Z,40.90
2018-12-29T02:08:41.062Z,42.70
2018-12-29T02:11:09.750Z,42.10
2018-12-29T02:13:38.536Z,42.80
2018-12-29T02:16:07.325Z,43.07
2018-12-29T02:18:36.113Z,44.07
2018-12-29T02:21:04.902Z,47.87
2018-12-29T02:23:33.690Z,42.20
2018-12-29T02:26:02.479Z,46.30
2018-12-29T02:28:31.270Z,45.77
2018-12-29T02:30:59.950Z,46.53
2018-12-29T02:33:28.943Z,48.17
2018-12-29T02:35:57.636Z,52.80
2018-12-29T02:38:26.419Z,43.80
2018-12-29T02:40:55.214Z,41.33
2018-12-29T02:43:23.993Z,40.67
2018-12-29T02:45:52.783Z,43.17
2018-12-29T02:48:21.570Z,44.33
2018-12-29T02:50:50.255Z,41.93
2018-12-29T02:53:19.046Z,47.47
2018-12-29T02:55:47.731Z,42.30
2018-12-29T02:58:16.523Z,44.30
2018-12-29T03:00:45.203Z,41.60
2018-12-29T03:03:13.991Z,40.20
2018-12-29T03:05:42.678Z,39.37
2018-12-29T03:08:11.465Z,42.93
2018-12-29T03:10:40.255Z,40.40
2018-12-29T03:13:09.042Z,41.37
2018-12-29T03:15:41.642Z,43.57
2018-12-29T03:18:08.258Z,38.53
2018-12-29T03:20:37.045Z,40.20
2018-12-29T03:23:05.833Z,42.00
2018-12-29T03:25:34.620Z,39.30
2018-12-29T03:28:03.307Z,33.10
2018-12-29T03:30:32.096Z,40.83
2018-12-29T03:33:00.885Z,39.67
2018-12-29T03:35:29.569Z,44.33
2018-12-29T03:37:58.472Z,40.17
2018-12-29T03:40:27.145Z,41.83
2018-12-29T03:42:56.139Z,43.13
2018-12-29T03:45:24.925Z,47.07
2018-12-29T03:47:53.816Z,47.17
2018-12-29T03:50:22.604Z,39.43
2018-12-29T03:52:51.393Z,42.43
2018-12-29T03:55:20.183Z,43.17
2018-12-29T03:57:48.970Z,44.83
2018-12-29T04:00:17.757Z,45.37
2018-12-29T04:02:46.443Z,47.37
2018-12-29T04:05:15.235Z,44.67
2018-12-29T04:07:43.916Z,49.00
2018-12-29T04:10:15.158Z,46.67
2018-12-29T04:12:46.715Z,44.40
2018-12-29T04:15:15.502Z,43.50
2018-12-29T04:17:44.293Z,43.20
2018-12-29T04:20:13.078Z,51.10
2018-12-29T04:22:41.774Z,49.70
2018-12-29T04:25:10.554Z,46.30
2018-12-29T04:27:39.340Z,49.60
2018-12-29T04:30:08.130Z,46.90
2018-12-29T04:32:36.917Z,48.60
2018-12-29T04:35:06.114Z,46.80
2018-12-29T04:37:34.904Z,50.30
2018-12-29T04:40:03.794Z,45.80
2018-12-29T04:42:32.587Z,47.10
2018-12-29T04:45:01.374Z,52.20
2018-12-29T04:47:30.056Z,48.43
2018-12-29T04:49:58.843Z,46.83
2018-12-29T04:52:27.533Z,52.60
2018-12-29T04:54:56.319Z,45.07
2018-12-29T04:57:25.106Z,44.57
2018-12-29T04:59:53.893Z,45.97
2018-12-29T05:02:22.580Z,45.03
2018-12-29T05:04:51.368Z,47.63
2018-12-29T05:07:20.055Z,44.73
2018-12-29T05:09:48.844Z,48.27
2018-12-29T05:12:17.732Z,50.23
2018-12-29T05:14:46.520Z,47.93
2018-12-29T05:17:15.308Z,45.47
2018-12-29T05:19:43.996Z,45.20
2018-12-29T05:22:12.783Z,47.30
2018-12-29T05:24:41.671Z,41.40
2018-12-29T05:27:10.460Z,48.37
2018-12-29T05:29:39.146Z,45.13
2018-12-29T05:32:07.934Z,47.53
2018-12-29T05:34:36.622Z,54.97
2018-12-29T05:37:05.409Z,44.93
2018-12-29T05:39:34.096Z,43.70
2018-12-29T05:42:02.883Z,44.47
2018-12-29T05:44:31.568Z,40.33
2018-12-29T05:47:00.360Z,43.53
2018-12-29T05:49:29.145Z,46.67
2018-12-29T05:51:57.934Z,49.40
2018-12-29T05:54:26.722Z,46.93
2018-12-29T05:56:55.508Z,45.10
2018-12-29T05:59:24.297Z,47.13
2018-12-29T06:01:53.086Z,51.20
2018-12-29T06:04:21.830Z,41.53
2018-12-29T06:06:50.560Z,48.23
2018-12-29T06:09:19.347Z,52.90
2018-12-29T06:11:48.136Z,49.03
2018-12-29T06:14:16.819Z,46.60
2018-12-29T06:16:45.610Z,48.53
2018-12-29T06:19:14.402Z,54.07
2018-12-29T06:21:43.186Z,49.33
2018-12-29T06:24:11.869Z,49.30
2018-12-29T06:26:40.659Z,52.13
2018-12-29T06:29:09.344Z,47.50
2018-12-29T06:31:38.032Z,43.97
2018-12-29T06:34:06.722Z,47.43
2018-12-29T06:36:35.506Z,49.13
2018-12-29T06:39:05.830Z,43.27
2018-12-29T06:41:34.616Z,50.40
2018-12-29T06:44:03.304Z,47.27
2018-12-29T06:46:35.169Z,53.03
2018-12-29T06:49:02.722Z,48.53
2018-12-29T06:51:31.714Z,52.90
2018-12-29T06:54:00.400Z,52.40
2018-12-29T06:56:29.188Z,53.80
2018-12-29T06:58:57.876Z,45.37
2018-12-29T07:01:26.662Z,54.43
2018-12-29T07:03:55.348Z,53.07
2018-12-29T07:06:24.141Z,51.53
2018-12-29T07:08:52.923Z,58.83
2018-12-29T07:11:21.719Z,56.40
2018-12-29T07:13:50.503Z,50.77
2018-12-29T07:16:19.289Z,53.67
2018-12-29T07:18:48.077Z,53.80
2018-12-29T07:21:16.866Z,58.07
2018-12-29T07:23:45.904Z,51.50
2018-12-29T07:26:14.549Z,52.20
2018-12-29T07:28:43.332Z,50.63
2018-12-29T07:31:11.913Z,49.30
2018-12-29T07:33:40.703Z,53.30
2018-12-29T07:36:09.391Z,49.10
2018-12-29T07:38:38.176Z,48.13
2018-12-29T07:41:06.965Z,48.70
2018-12-29T07:43:35.754Z,46.67
2018-12-29T07:46:04.542Z,52.63
2018-12-29T07:48:33.328Z,46.90
2018-12-29T07:51:02.016Z,50.60
2018-12-29T07:53:30.802Z,43.43
2018-12-29T07:55:59.488Z,54.30
2018-12-29T07:58:28.277Z,49.97
2018-12-29T08:00:57.063Z,53.17
2018-12-29T08:03:26.160Z,45.77
2018-12-29T08:05:54.949Z,53.73
2018-12-29T08:08:23.633Z,50.60
2018-12-29T08:10:52.421Z,47.27
2018-12-29T08:13:21.119Z,46.17
2018-12-29T08:15:49.895Z,53.90
2018-12-29T08:18:18.686Z,51.30
2018-12-29T08:20:47.473Z,44.90
2018-12-29T08:23:16.259Z,44.90
2018-12-29T08:25:44.948Z,49.50
2018-12-29T08:28:13.733Z,58.30
2018-12-29T08:30:42.522Z,51.50
2018-12-29T08:33:11.309Z,56.57
2018-12-29T08:35:40.098Z,46.10
2018-12-29T08:38:08.887Z,53.17
2018-12-29T08:40:37.683Z,52.70
2018-12-29T08:43:06.470Z,62.67
2018-12-29T08:45:35.250Z,64.47
2018-12-29T08:48:04.040Z,61.23
2018-12-29T08:50:32.828Z,63.43
2018-12-29T08:53:01.722Z,59.13
2018-12-29T08:55:30.517Z,75.97
2018-12-29T08:57:59.404Z,56.63
2018-12-29T09:00:28.081Z,60.20
2018-12-29T09:02:56.878Z,52.93
2018-12-29T09:05:25.657Z,67.77
2018-12-29T09:07:54.445Z,56.80
2018-12-29T09:10:23.237Z,57.67
2018-12-29T09:12:52.023Z,55.50
2018-12-29T09:15:20.812Z,54.97
2018-12-29T09:17:49.497Z,63.07
2018-12-29T09:20:18.182Z,48.93
2018-12-29T09:22:46.971Z,53.53
2018-12-29T09:25:15.759Z,50.60
2018-12-29T09:27:44.548Z,52.57
2018-12-29T09:30:13.543Z,46.83
2018-12-29T09:32:42.172Z,47.07
2018-12-29T09:35:10.808Z,47.63
2018-12-29T09:37:39.596Z,41.53
2018-12-29T09:40:08.286Z,41.77
2018-12-29T09:42:37.378Z,36.50
2018-12-29T09:45:06.379Z,40.97
2018-12-29T09:47:35.160Z,44.80
2018-12-29T09:50:04.153Z,43.73
2018-12-29T09:52:32.941Z,43.63
2018-12-29T09:55:01.733Z,43.13
2018-12-29T09:57:30.516Z,42.50
2018-12-29T09:59:59.203Z,42.30
2018-12-29T10:02:27.999Z,46.23
2018-12-29T10:04:56.777Z,45.37
2018-12-29T10:07:25.567Z,41.43
2018-12-29T10:09:54.354Z,37.30
2018-12-29T10:12:23.051Z,35.70
2018-12-29T10:14:51.692Z,38.17
2018-12-29T10:17:26.792Z,36.63
2018-12-29T10:19:50.623Z,43.80
2018-12-29T10:22:19.253Z,34.03
2018-12-29T10:24:47.991Z,43.67
2018-12-29T10:27:16.585Z,31.87
2018-12-29T10:29:45.242Z,41.17
2018-12-29T10:32:13.852Z,34.10
2018-12-29T10:34:42.501Z,40.23
2018-12-29T10:37:11.104Z,38.23
2018-12-29T10:39:39.914Z,33.50
2018-12-29T10:42:08.703Z,40.23
2018-12-29T10:44:37.490Z,43.37
2018-12-29T10:47:06.280Z,39.90
2018-12-29T10:49:35.071Z,34.50
2018-12-29T10:52:03.772Z,38.20
2018-12-29T10:54:32.847Z,35.33
2018-12-29T10:57:01.547Z,34.70
2018-12-29T10:59:30.429Z,35.27
2018-12-29T11:02:11.549Z,31.50
2018-12-29T11:04:42.070Z,32.63
2018-12-29T11:07:10.748Z,38.60
2018-12-29T11:09:39.708Z,32.63
2018-12-29T11:12:09.829Z,34.67
2018-12-29T11:14:38.614Z,40.20
2018-12-29T11:17:07.492Z,37.00
2018-12-29T11:19:38.342Z,39.67
2018-12-29T11:22:07.129Z,45.70
2018-12-29T11:24:37.442Z,38.50
2018-12-29T11:27:06.225Z,41.47
2018-12-29T11:29:34.858Z,41.13
2018-12-29T11:32:03.625Z,42.77
2018-12-29T11:34:35.884Z,41.93
2018-12-29T11:37:04.577Z,45.13
2018-12-29T11:39:33.252Z,46.43
2018-12-29T11:42:01.818Z,42.10
2018-12-29T11:44:30.507Z,43.20
2018-12-29T11:46:59.159Z,40.30
2018-12-29T11:49:27.838Z,38.60
2018-12-29T11:51:56.408Z,39.13
2018-12-29T11:54:25.338Z,35.93
2018-12-29T11:56:54.414Z,40.30
2018-12-29T11:59:23.085Z,37.87
2018-12-29T12:01:51.837Z,40.50
2018-12-29T12:04:20.624Z,38.00
2018-12-29T12:06:49.411Z,42.57
2018-12-29T12:09:18.206Z,36.60
2018-12-29T12:11:46.987Z,34.97
2018-12-29T12:14:15.776Z,41.87
2018-12-29T12:16:44.568Z,37.70
2018-12-29T12:19:13.267Z,37.23
2018-12-29T12:21:41.837Z,39.73
2018-12-29T12:24:10.477Z,35.97
2018-12-29T12:26:39.053Z,40.07
2018-12-29T12:29:07.708Z,35.83
2018-12-29T12:31:38.960Z,40.33
2018-12-29T12:34:07.962Z,34.33
2018-12-29T12:36:37.122Z,38.70
2018-12-29T12:39:07.015Z,35.57
2018-12-29T12:41:36.131Z,39.47
2018-12-29T12:44:04.818Z,30.63
2018-12-29T12:46:33.614Z,33.00
2018-12-29T12:49:02.535Z,29.07
2018-12-29T12:51:31.208Z,30.60
2018-12-29T12:53:59.861Z,32.90
2018-12-29T12:56:28.462Z,31.13
2018-12-29T12:58:57.243Z,32.87
2018-12-29T13:01:26.333Z,31.53
2018-12-29T13:03:55.158Z,27.87
2018-12-29T13:06:23.976Z,33.07
2018-12-29T13:08:52.800Z,32.90
2018-12-29T13:11:21.589Z,31.60
2018-12-29T13:13:50.376Z,32.67
2018-12-29T13:16:19.064Z,32.07
2018-12-29T13:18:47.855Z,27.47
2018-12-29T13:21:16.642Z,28.30
2018-12-29T13:23:47.304Z,30.17
2018-12-29T13:26:20.670Z,30.37
2018-12-29T13:28:51.107Z,30.27
2018-12-29T13:31:19.705Z,36.83
2018-12-29T13:33:48.345Z,26.40
2018-12-29T13:36:16.963Z,31.20
2018-12-29T13:38:45.634Z,27.80
2018-12-29T13:41:14.417Z,30.87
2018-12-29T13:43:46.514Z,30.13
2018-12-29T13:46:24.283Z,30.27
2018-12-29T13:48:52.968Z,27.57
2018-12-29T13:51:21.653Z,30.67
2018-12-29T13:53:50.445Z,31.40
2018-12-29T13:56:19.229Z,31.93
2018-12-29T13:58:48.019Z,26.47
2018-12-29T14:01:16.806Z,27.37
2018-12-29T14:03:45.594Z,26.90
2018-12-29T14:06:14.384Z,29.90
2018-12-29T14:08:43.274Z,35.50
2018-12-29T14:11:12.062Z,30.17
2018-12-29T14:13:40.953Z,33.50
2018-12-29T14:16:09.637Z,27.87
2018-12-29T14:18:38.327Z,34.63
2018-12-29T14:21:07.522Z,30.97
2018-12-29T14:23:36.309Z,30.07
2018-12-29T14:26:04.994Z,28.30
2018-12-29T14:28:33.692Z,27.17
2018-12-29T14:31:02.283Z,35.50
2018-12-29T14:33:31.361Z,29.90
2018-12-29T14:36:00.053Z,26.20
2018-12-29T14:38:28.837Z,32.00
2018-12-29T14:40:57.620Z,31.40
2018-12-29T14:43:26.411Z,30.40
2018-12-29T14:45:55.302Z,31.37
2018-12-29T14:48:24.089Z,33.93
2018-12-29T14:50:52.774Z,36.27
2018-12-29T14:53:21.564Z,32.87
2018-12-29T14:55:50.350Z,34.27
2018-12-29T14:58:19.138Z,32.30
2018-12-29T15:00:47.926Z,34.07
2018-12-29T15:03:20.366Z,34.77
2018-12-29T15:05:49.190Z,36.37
2018-12-29T15:08:17.984Z,32.37
2018-12-29T15:10:46.663Z,36.80
2018-12-29T15:13:15.652Z,48.67
2018-12-29T15:15:44.349Z,29.97
2018-12-29T15:18:13.336Z,28.80
2018-12-29T15:20:48.472Z,31.47
2018-12-29T15:23:17.362Z,31.00
2018-12-29T15:25:46.047Z,27.67
2018-12-29T15:28:14.745Z,34.03
2018-12-29T15:30:43.802Z,30.37
2018-12-29T15:33:12.516Z,27.90
2018-12-29T15:35:41.098Z,27.80
2018-12-29T15:38:10.099Z,31.10
2018-12-29T15:40:38.688Z,25.90
2018-12-29T15:43:07.295Z,32.27
2018-12-29T15:45:36.366Z,26.63
2018-12-29T15:48:05.004Z,27.13
2018-12-29T15:50:34.916Z,23.30
2018-12-29T15:53:04.068Z,25.53
2018-12-29T15:55:32.660Z,23.70
2018-12-29T15:58:01.633Z,26.00
2018-12-29T16:00:30.239Z,29.13
2018-12-29T16:02:58.843Z,22.20
2018-12-29T16:05:27.469Z,24.83
2018-12-29T16:07:56.553Z,23.23
2018-12-29T16:10:25.258Z,22.60
2018-12-29T16:12:54.047Z,22.83
2018-12-29T16:15:23.243Z,26.53
2018-12-29T16:17:52.145Z,28.87
2018-12-29T16:20:20.921Z,23.10
2018-12-29T16:22:49.942Z,28.27
2018-12-29T16:25:18.540Z,23.17
2018-12-29T16:27:47.230Z,28.40
2018-12-29T16:30:15.904Z,23.93
2018-12-29T16:32:44.925Z,19.97
2018-12-29T16:35:13.532Z,20.57
2018-12-29T16:37:42.174Z,25.60
2018-12-29T16:40:10.768Z,16.90
2018-12-29T16:42:39.606Z,17.00
2018-12-29T16:45:08.375Z,19.43
2018-12-29T16:47:37.009Z,16.53
2018-12-29T16:50:07.919Z,16.30
2018-12-29T16:52:36.602Z,14.40
2018-12-29T16:55:06.006Z,14.50
2018-12-29T16:57:34.795Z,14.10
2018-12-29T17:00:04.897Z,13.13
2018-12-29T17:02:33.598Z,12.00
2018-12-29T17:05:02.504Z,13.10
2018-12-29T17:07:31.105Z,16.33
2018-12-29T17:09:59.714Z,13.87
2018-12-29T17:12:28.328Z,12.37
2018-12-29T17:14:56.907Z,12.30
2018-12-29T17:17:25.536Z,10.20
2018-12-29T17:19:54.118Z,11.70
2018-12-29T17:22:22.872Z,11.17
2018-12-29T17:24:51.440Z,13.77
2018-12-29T17:27:20.101Z,10.70
2018-12-29T17:29:48.864Z,11.87
2018-12-29T17:32:17.529Z,11.27
2018-12-29T17:34:46.117Z,12.23
2018-12-29T17:37:14.750Z,14.07
2018-12-29T17:39:43.495Z,11.30
2018-12-29T17:42:12.154Z,10.53
2018-12-29T17:44:40.753Z,13.43
2018-12-29T17:47:09.428Z,8.90
2018-12-29T17:49:38.216Z,9.90
2018-12-29T17:52:07.211Z,12.73
2018-12-29T17:54:35.902Z,11.17
2018-12-29T17:57:04.683Z,10.30
2018-12-29T17:59:35.374Z,10.20
2018-12-29T18:02:04.077Z,10.10
2018-12-29T18:04:32.981Z,12.93
2018-12-29T18:07:01.678Z,12.30
2018-12-29T18:09:30.770Z,13.73
2018-12-29T18:11:59.542Z,12.90
2018-12-29T18:14:28.201Z,11.00
2018-12-29T18:16:56.875Z,12.33
2018-12-29T18:19:30.557Z,11.70
2018-12-29T18:21:55.842Z,10.87
2018-12-29T18:24:24.649Z,14.97
2018-12-29T18:26:53.418Z,12.00
2018-12-29T18:29:22.104Z,12.30
2018-12-29T18:31:51.198Z,11.50
2018-12-29T18:34:19.990Z,13.80
2018-12-29T18:36:48.775Z,18.50
2018-12-29T18:39:17.564Z,13.10
2018-12-29T18:41:46.349Z,13.90
2018-12-29T18:44:15.139Z,12.50
2018-12-29T18:46:43.819Z,15.07
2018-12-29T18:49:12.498Z,13.90
2018-12-29T18:51:41.069Z,14.30
2018-12-29T18:54:09.722Z,14.90
2018-12-29T18:56:45.361Z,14.47
2018-12-29T18:59:08.731Z,15.27
2018-12-29T19:01:37.309Z,18.60
2018-12-29T19:04:06.003Z,19.67
2018-12-29T19:06:34.595Z,20.00
2018-12-29T19:09:05.116Z,21.80
2018-12-29T19:11:34.089Z,19.60
2018-12-29T19:14:03.077Z,20.67
2018-12-29T19:16:31.676Z,21.90
2018-12-29T19:19:00.366Z,21.20
2018-12-29T19:21:28.994Z,22.77
2018-12-29T19:23:58.191Z,24.70
2018-12-29T19:26:27.312Z,22.37
2018-12-29T19:28:56.461Z,24.03
2018-12-29T19:31:25.038Z,27.80
2018-12-29T19:33:53.649Z,24.90
2018-12-29T19:36:22.233Z,24.47
2018-12-29T19:38:51.032Z,25.20
2018-12-29T19:41:20.280Z,25.10
2018-12-29T19:43:49.416Z,23.00
2018-12-29T19:46:18.383Z,37.20
2018-12-29T19:48:46.993Z,27.17
2018-12-29T19:51:15.584Z,29.47
2018-12-29T19:53:44.460Z,28.80
2018-12-29T19:56:13.038Z,25.77
2018-12-29T19:58:41.764Z,28.43
2018-12-29T20:01:10.336Z,28.93
2018-12-29T20:03:39.159Z,26.70
2018-12-29T20:06:12.266Z,33.43
2018-12-29T20:08:38.173Z,32.23
2018-12-29T20:11:06.775Z,29.67
2018-12-29T20:13:35.529Z,28.97
2018-12-29T20:16:04.116Z,32.37
2018-12-29T20:18:32.745Z,28.97
2018-12-29T20:21:01.734Z,28.27
2018-12-29T20:23:30.372Z,26.30
2018-12-29T20:25:58.938Z,29.23
2018-12-29T20:28:27.598Z,28.33
2018-12-29T20:30:56.205Z,27.93
2018-12-29T20:33:25.013Z,27.80
2018-12-29T20:35:53.692Z,31.27
2018-12-29T20:38:22.333Z,26.37
2018-12-29T20:40:50.935Z,26.10
2018-12-29T20:43:19.535Z,23.83
2018-12-29T20:45:48.121Z,23.53
2018-12-29T20:48:17.027Z,24.93
2018-12-29T20:50:45.995Z,25.07
2018-12-29T20:53:14.579Z,24.90
2018-12-29T20:55:43.185Z,23.17
2018-12-29T20:58:11.850Z,27.37
2018-12-29T21:00:40.734Z,21.87
2018-12-29T21:03:09.369Z,19.63
2018-12-29T21:05:37.942Z,23.93
2018-12-29T21:08:06.567Z,20.13
2018-12-29T21:10:35.160Z,21.30
2018-12-29T21:13:03.774Z,23.43
2018-12-29T21:15:32.364Z,22.47
2018-12-29T21:18:01.033Z,19.07
2018-12-29T21:20:29.650Z,21.20
2018-12-29T21:22:58.407Z,22.00
2018-12-29T21:25:26.982Z,21.00
2018-12-29T21:27:55.812Z,19.43
2018-12-29T21:30:24.390Z,22.43
2018-12-29T21:32:53.038Z,19.43
2018-12-29T21:35:21.615Z,19.57
2018-12-29T21:37:50.297Z,19.20
2018-12-29T21:40:18.869Z,20.97
2018-12-29T21:42:47.546Z,20.10
2018-12-29T21:45:16.136Z,19.53
2018-12-29T21:47:44.778Z,17.60
2018-12-29T21:50:13.436Z,25.87
2018-12-29T21:52:42.059Z,20.60
2018-12-29T21:55:11.060Z,17.60
2018-12-29T21:57:39.791Z,18.07
2018-12-29T22:00:09.747Z,18.43
2018-12-29T22:02:38.400Z,16.90
2018-12-29T22:05:07.046Z,16.23
2018-12-29T22:07:35.785Z,17.07
2018-12-29T22:10:06.001Z,16.83
2018-12-29T22:12:34.622Z,15.07
2018-12-29T22:15:03.198Z,16.73
2018-12-29T22:17:32.284Z,14.97
2018-12-29T22:20:00.981Z,17.83
2018-12-29T22:22:30.236Z,28.83
2018-12-29T22:24:59.022Z,16.30
2018-12-29T22:27:28.055Z,23.70
2018-12-29T22:29:58.357Z,18.87
2018-12-29T22:32:45.940Z,26.90
2018-12-29T22:35:14.668Z,14.43
2018-12-29T22:37:43.491Z,12.87
2018-12-29T22:40:13.329Z,11.40
2018-12-29T22:42:41.935Z,15.53
2018-12-29T22:45:10.825Z,13.20
2018-12-29T22:47:39.502Z,14.00
2018-12-29T22:50:08.869Z,11.80
2018-12-29T22:52:37.468Z,12.20
2018-12-29T22:55:06.124Z,13.90
2018-12-29T22:57:35.174Z,13.23
2018-12-29T23:00:04.378Z,14.47
2018-12-29T23:02:33.227Z,12.13
2018-12-29T23:05:01.866Z,14.47
2018-12-29T23:07:30.472Z,12.33
2018-12-29T23:09:59.085Z,11.90
2018-12-29T23:12:27.690Z,13.30
2018-12-29T23:14:56.858Z,12.17
2018-12-29T23:17:25.572Z,12.73
2018-12-29T23:19:54.290Z,11.27
2018-12-29T23:22:23.383Z,18.10
2018-12-29T23:24:51.956Z,11.60
2018-12-29T23:27:20.584Z,11.40
2018-12-29T23:29:49.153Z,11.40
2018-12-29T23:32:17.789Z,10.80
2018-12-29T23:34:46.383Z,12.40
2018-12-29T23:37:15.015Z,12.43
2018-12-29T23:39:43.609Z,12.27
2018-12-29T23:42:12.226Z,9.50
2018-12-29T23:44:40.795Z,16.07
2018-12-29T23:47:09.408Z,12.23
2018-12-29T23:49:38.011Z,11.40
2018-12-29T23:52:06.702Z,13.50
2018-12-29T23:54:35.293Z,10.03
2018-12-29T23:57:03.990Z,11.87
2018-12-29T23:59:32.578Z,13.20
